sensor_id;sensor_type;location;lat;lon;timestamp;temperature;humidity
4962;DHT22;2496;52.468;13.342;2023-05-08T00:01:35;8.90;99.90
4962;DHT22;2496;52.468;13.342;2023-05-08T00:04:02;8.90;99.90
4962;DHT22;2496;52.468;13.342;2023-05-08T00:06:29;8.90;99.90
4962;DHT22;2496;52.468;13.342;2023-05-08T00:08:57;8.80;99.90
4962;DHT22;2496;52.468;13.342;2023-05-08T00:11:24;8.80;99.90
4962;DHT22;2496;52.468;13.342;2023-05-08T00:13:51;8.80;99.90
4962;DHT22;2496;52.468;13.342;2023-05-08T00:16:18;8.80;99.90
4962;DHT22;2496;52.468;13.342;2023-05-08T00:18:46;8.70;99.90
4962;DHT22;2496;52.468;13.342;2023-05-08T00:21:13;8.70;99.90
4962;DHT22;2496;52.468;13.342;2023-05-08T00:23:40;8.60;99.90
4962;DHT22;2496;52.468;13.342;2023-05-08T00:26:09;8.60;99.90
4962;DHT22;2496;52.468;13.342;2023-05-08T00:28:37;8.60;99.90
4962;DHT22;2496;52.468;13.342;2023-05-08T00:31:04;8.50;99.90
4962;DHT22;2496;52.468;13.342;2023-05-08T00:33:30;8.50;99.90
4962;DHT22;2496;52.468;13.342;2023-05-08T00:35:58;8.50;99.90
4962;DHT22;2496;52.468;13.342;2023-05-08T00:38:27;8.50;99.90
4962;DHT22;2496;52.468;13.342;2023-05-08T00:40:55;8.40;99.90
4962;DHT22;2496;52.468;13.342;2023-05-08T00:43:24;8.50;99.90
4962;DHT22;2496;52.468;13.342;2023-05-08T00:45:53;8.40;99.90
4962;DHT22;2496;52.468;13.342;2023-05-08T00:48:21;8.40;99.90
4962;DHT22;2496;52.468;13.342;2023-05-08T00:50:49;8.40;99.90
4962;DHT22;2496;52.468;13.342;2023-05-08T00:53:18;8.40;99.90
4962;DHT22;2496;52.468;13.342;2023-05-08T00:55:45;8.40;99.90
4962;DHT22;2496;52.468;13.342;2023-05-08T00:58:13;8.30;99.90
4962;DHT22;2496;52.468;13.342;2023-05-08T01:00:43;8.30;99.90
4962;DHT22;2496;52.468;13.342;2023-05-08T01:03:11;8.20;99.90
4962;DHT22;2496;52.468;13.342;2023-05-08T01:05:39;8.20;99.90
4962;DHT22;2496;52.468;13.342;2023-05-08T01:08:06;8.20;99.90
4962;DHT22;2496;52.468;13.342;2023-05-08T01:10:42;8.20;99.90
4962;DHT22;2496;52.468;13.342;2023-05-08T01:13:17;8.10;99.90
4962;DHT22;2496;52.468;13.342;2023-05-08T01:15:50;8.10;99.90
4962;DHT22;2496;52.468;13.342;2023-05-08T01:18:25;8.10;99.90
4962;DHT22;2496;52.468;13.342;2023-05-08T01:20:59;8.10;99.90
4962;DHT22;2496;52.468;13.342;2023-05-08T01:27:14;8.10;99.90
4962;DHT22;2496;52.468;13.342;2023-05-08T01:30:08;8.00;99.90
4962;DHT22;2496;52.468;13.342;2023-05-08T01:32:41;7.90;99.90
4962;DHT22;2496;52.468;13.342;2023-05-08T01:35:16;7.90;99.90
4962;DHT22;2496;52.468;13.342;2023-05-08T01:37:51;7.90;99.90
4962;DHT22;2496;52.468;13.342;2023-05-08T01:40:27;7.90;99.90
4962;DHT22;2496;52.468;13.342;2023-05-08T01:43:07;7.90;99.90
4962;DHT22;2496;52.468;13.342;2023-05-08T01:45:40;7.90;99.90
4962;DHT22;2496;52.468;13.342;2023-05-08T01:48:16;7.90;99.90
4962;DHT22;2496;52.468;13.342;2023-05-08T01:50:47;7.80;99.90
4962;DHT22;2496;52.468;13.342;2023-05-08T01:53:19;7.80;99.90
4962;DHT22;2496;52.468;13.342;2023-05-08T01:55:49;7.80;99.90
4962;DHT22;2496;52.468;13.342;2023-05-08T01:58:17;7.80;99.90
4962;DHT22;2496;52.468;13.342;2023-05-08T02:00:44;7.80;99.90
4962;DHT22;2496;52.468;13.342;2023-05-08T02:03:15;7.70;99.90
4962;DHT22;2496;52.468;13.342;2023-05-08T02:05:43;7.70;99.90
4962;DHT22;2496;52.468;13.342;2023-05-08T02:08:12;7.70;99.90
4962;DHT22;2496;52.468;13.342;2023-05-08T02:10:41;7.60;99.90
4962;DHT22;2496;52.468;13.342;2023-05-08T02:13:10;7.70;99.90
4962;DHT22;2496;52.468;13.342;2023-05-08T02:15:45;7.70;99.90
4962;DHT22;2496;52.468;13.342;2023-05-08T02:18:15;7.60;99.90
4962;DHT22;2496;52.468;13.342;2023-05-08T02:20:44;7.60;99.90
4962;DHT22;2496;52.468;13.342;2023-05-08T02:23:12;7.50;99.90
4962;DHT22;2496;52.468;13.342;2023-05-08T02:25:40;7.50;99.90
4962;DHT22;2496;52.468;13.342;2023-05-08T02:28:08;7.50;99.90
4962;DHT22;2496;52.468;13.342;2023-05-08T02:30:37;7.40;99.90
4962;DHT22;2496;52.468;13.342;2023-05-08T02:33:07;7.40;99.90
4962;DHT22;2496;52.468;13.342;2023-05-08T02:35:38;7.40;99.90
4962;DHT22;2496;52.468;13.342;2023-05-08T02:38:07;7.40;99.90
4962;DHT22;2496;52.468;13.342;2023-05-08T02:40:37;7.50;99.90
4962;DHT22;2496;52.468;13.342;2023-05-08T02:43:05;7.40;99.90
4962;DHT22;2496;52.468;13.342;2023-05-08T02:45:38;7.40;99.90
4962;DHT22;2496;52.468;13.342;2023-05-08T02:48:10;7.40;99.90
4962;DHT22;2496;52.468;13.342;2023-05-08T02:50:45;7.40;99.90
4962;DHT22;2496;52.468;13.342;2023-05-08T02:53:27;7.30;99.90
4962;DHT22;2496;52.468;13.342;2023-05-08T02:56:07;7.30;99.90
4962;DHT22;2496;52.468;13.342;2023-05-08T02:58:41;7.30;99.90
4962;DHT22;2496;52.468;13.342;2023-05-08T03:01:13;7.30;99.90
4962;DHT22;2496;52.468;13.342;2023-05-08T03:03:45;7.30;99.90
4962;DHT22;2496;52.468;13.342;2023-05-08T03:06:20;7.30;99.90
4962;DHT22;2496;52.468;13.342;2023-05-08T03:08:49;7.30;99.90
4962;DHT22;2496;52.468;13.342;2023-05-08T03:11:21;7.30;99.90
4962;DHT22;2496;52.468;13.342;2023-05-08T03:13:50;7.20;99.90
4962;DHT22;2496;52.468;13.342;2023-05-08T03:16:23;7.20;99.90
4962;DHT22;2496;52.468;13.342;2023-05-08T03:18:54;7.20;99.90
4962;DHT22;2496;52.468;13.342;2023-05-08T03:21:27;7.20;99.90
4962;DHT22;2496;52.468;13.342;2023-05-08T03:23:56;7.20;99.90
4962;DHT22;2496;52.468;13.342;2023-05-08T03:26:25;7.10;99.90
4962;DHT22;2496;52.468;13.342;2023-05-08T03:28:53;7.10;99.90
4962;DHT22;2496;52.468;13.342;2023-05-08T03:31:22;7.10;99.90
4962;DHT22;2496;52.468;13.342;2023-05-08T03:33:52;7.10;99.90
4962;DHT22;2496;52.468;13.342;2023-05-08T03:36:20;7.10;99.90
4962;DHT22;2496;52.468;13.342;2023-05-08T03:38:50;7.10;99.90
4962;DHT22;2496;52.468;13.342;2023-05-08T03:41:17;7.10;99.90
4962;DHT22;2496;52.468;13.342;2023-05-08T03:43:45;7.10;99.90
4962;DHT22;2496;52.468;13.342;2023-05-08T03:46:12;7.00;99.90
4962;DHT22;2496;52.468;13.342;2023-05-08T03:48:40;6.90;99.90
4962;DHT22;2496;52.468;13.342;2023-05-08T03:51:08;7.00;99.90
4962;DHT22;2496;52.468;13.342;2023-05-08T03:53:35;7.00;99.90
4962;DHT22;2496;52.468;13.342;2023-05-08T03:56:05;7.00;99.90
4962;DHT22;2496;52.468;13.342;2023-05-08T03:58:37;6.90;99.90
4962;DHT22;2496;52.468;13.342;2023-05-08T04:01:12;6.90;99.90
4962;DHT22;2496;52.468;13.342;2023-05-08T04:03:48;6.80;99.90
4962;DHT22;2496;52.468;13.342;2023-05-08T04:06:23;6.80;99.90
4962;DHT22;2496;52.468;13.342;2023-05-08T04:09:06;6.80;99.90
4962;DHT22;2496;52.468;13.342;2023-05-08T04:11:41;6.70;99.90
4962;DHT22;2496;52.468;13.342;2023-05-08T04:14:15;6.80;99.90
4962;DHT22;2496;52.468;13.342;2023-05-08T04:16:49;6.80;99.90
4962;DHT22;2496;52.468;13.342;2023-05-08T04:19:22;6.70;99.90
4962;DHT22;2496;52.468;13.342;2023-05-08T04:21:50;6.70;99.90
4962;DHT22;2496;52.468;13.342;2023-05-08T04:24:22;6.80;99.90
4962;DHT22;2496;52.468;13.342;2023-05-08T04:26:53;6.80;99.90
4962;DHT22;2496;52.468;13.342;2023-05-08T04:29:20;6.80;99.90
4962;DHT22;2496;52.468;13.342;2023-05-08T04:31:49;6.80;99.90
4962;DHT22;2496;52.468;13.342;2023-05-08T04:34:16;6.70;99.90
4962;DHT22;2496;52.468;13.342;2023-05-08T04:36:44;6.80;99.90
4962;DHT22;2496;52.468;13.342;2023-05-08T04:39:13;6.80;99.90
4962;DHT22;2496;52.468;13.342;2023-05-08T04:41:40;6.90;99.90
4962;DHT22;2496;52.468;13.342;2023-05-08T04:44:09;6.90;99.90
4962;DHT22;2496;52.468;13.342;2023-05-08T04:46:36;6.90;99.90
4962;DHT22;2496;52.468;13.342;2023-05-08T04:49:03;7.10;99.90
4962;DHT22;2496;52.468;13.342;2023-05-08T04:51:30;7.10;99.90
4962;DHT22;2496;52.468;13.342;2023-05-08T04:53:57;7.20;99.90
4962;DHT22;2496;52.468;13.342;2023-05-08T04:56:24;7.20;99.90
4962;DHT22;2496;52.468;13.342;2023-05-08T04:58:52;7.30;99.90
4962;DHT22;2496;52.468;13.342;2023-05-08T05:01:21;7.40;99.90
4962;DHT22;2496;52.468;13.342;2023-05-08T05:03:48;7.40;99.90
4962;DHT22;2496;52.468;13.342;2023-05-08T05:06:15;7.50;99.90
4962;DHT22;2496;52.468;13.342;2023-05-08T05:08:42;7.50;99.90
4962;DHT22;2496;52.468;13.342;2023-05-08T05:11:09;7.60;99.90
4962;DHT22;2496;52.468;13.342;2023-05-08T05:13:37;7.80;99.90
4962;DHT22;2496;52.468;13.342;2023-05-08T05:16:04;7.80;99.90
4962;DHT22;2496;52.468;13.342;2023-05-08T05:18:32;7.90;99.90
4962;DHT22;2496;52.468;13.342;2023-05-08T05:20:59;7.90;99.90
4962;DHT22;2496;52.468;13.342;2023-05-08T05:23:26;8.00;99.90
4962;DHT22;2496;52.468;13.342;2023-05-08T05:25:53;8.00;99.90
4962;DHT22;2496;52.468;13.342;2023-05-08T05:28:20;8.00;99.90
4962;DHT22;2496;52.468;13.342;2023-05-08T05:30:47;8.10;99.90
4962;DHT22;2496;52.468;13.342;2023-05-08T05:33:14;8.20;99.90
4962;DHT22;2496;52.468;13.342;2023-05-08T05:35:42;8.50;99.90
4962;DHT22;2496;52.468;13.342;2023-05-08T05:38:09;9.30;99.90
4962;DHT22;2496;52.468;13.342;2023-05-08T05:40:36;10.10;99.90
4962;DHT22;2496;52.468;13.342;2023-05-08T05:43:03;10.70;99.90
4962;DHT22;2496;52.468;13.342;2023-05-08T05:45:30;10.70;99.90
4962;DHT22;2496;52.468;13.342;2023-05-08T05:47:57;10.80;99.90
4962;DHT22;2496;52.468;13.342;2023-05-08T05:50:24;10.90;99.90
4962;DHT22;2496;52.468;13.342;2023-05-08T05:52:53;10.70;99.90
4962;DHT22;2496;52.468;13.342;2023-05-08T05:55:20;10.90;99.90
4962;DHT22;2496;52.468;13.342;2023-05-08T05:57:47;10.70;99.90
4962;DHT22;2496;52.468;13.342;2023-05-08T06:00:15;10.70;99.90
4962;DHT22;2496;52.468;13.342;2023-05-08T06:02:42;10.60;99.90
4962;DHT22;2496;52.468;13.342;2023-05-08T06:05:10;10.60;99.90
4962;DHT22;2496;52.468;13.342;2023-05-08T06:07:37;10.60;99.90
4962;DHT22;2496;52.468;13.342;2023-05-08T06:10:07;10.40;99.90
4962;DHT22;2496;52.468;13.342;2023-05-08T06:12:34;10.40;99.90
4962;DHT22;2496;52.468;13.342;2023-05-08T06:15:01;10.50;99.90
4962;DHT22;2496;52.468;13.342;2023-05-08T06:17:27;10.70;99.90
4962;DHT22;2496;52.468;13.342;2023-05-08T06:19:54;10.70;99.90
4962;DHT22;2496;52.468;13.342;2023-05-08T06:22:22;10.60;99.90
4962;DHT22;2496;52.468;13.342;2023-05-08T06:24:49;10.60;99.90
4962;DHT22;2496;52.468;13.342;2023-05-08T06:27:19;10.60;99.90
4962;DHT22;2496;52.468;13.342;2023-05-08T06:29:46;10.60;99.90
4962;DHT22;2496;52.468;13.342;2023-05-08T06:32:16;10.70;99.90
4962;DHT22;2496;52.468;13.342;2023-05-08T06:34:43;10.70;99.90
4962;DHT22;2496;52.468;13.342;2023-05-08T06:37:10;10.80;99.90
4962;DHT22;2496;52.468;13.342;2023-05-08T06:39:37;10.90;99.90
4962;DHT22;2496;52.468;13.342;2023-05-08T06:42:04;11.00;99.90
4962;DHT22;2496;52.468;13.342;2023-05-08T06:44:33;10.90;99.90
4962;DHT22;2496;52.468;13.342;2023-05-08T06:47:00;10.90;99.90
4962;DHT22;2496;52.468;13.342;2023-05-08T06:49:27;10.90;99.90
4962;DHT22;2496;52.468;13.342;2023-05-08T06:51:54;10.90;99.90
4962;DHT22;2496;52.468;13.342;2023-05-08T06:54:21;11.00;99.90
4962;DHT22;2496;52.468;13.342;2023-05-08T06:56:48;11.10;99.90
4962;DHT22;2496;52.468;13.342;2023-05-08T06:59:15;11.30;99.90
4962;DHT22;2496;52.468;13.342;2023-05-08T07:01:43;11.40;99.90
4962;DHT22;2496;52.468;13.342;2023-05-08T07:04:11;11.50;99.90
4962;DHT22;2496;52.468;13.342;2023-05-08T07:06:38;11.70;99.90
4962;DHT22;2496;52.468;13.342;2023-05-08T07:09:05;11.80;99.60
4962;DHT22;2496;52.468;13.342;2023-05-08T07:11:32;11.80;99.60
4962;DHT22;2496;52.468;13.342;2023-05-08T07:13:59;12.00;99.30
4962;DHT22;2496;52.468;13.342;2023-05-08T07:16:26;12.00;98.40
4962;DHT22;2496;52.468;13.342;2023-05-08T07:18:54;12.30;98.00
4962;DHT22;2496;52.468;13.342;2023-05-08T07:21:21;12.40;96.50
4962;DHT22;2496;52.468;13.342;2023-05-08T07:23:48;12.40;96.40
4962;DHT22;2496;52.468;13.342;2023-05-08T07:26:18;12.30;96.30
4962;DHT22;2496;52.468;13.342;2023-05-08T07:28:46;12.30;95.60
4962;DHT22;2496;52.468;13.342;2023-05-08T07:31:13;12.40;95.80
4962;DHT22;2496;52.468;13.342;2023-05-08T07:33:40;12.60;95.30
4962;DHT22;2496;52.468;13.342;2023-05-08T07:36:09;12.70;94.60
4962;DHT22;2496;52.468;13.342;2023-05-08T07:38:36;12.80;94.70
4962;DHT22;2496;52.468;13.342;2023-05-08T07:41:03;12.90;94.40
4962;DHT22;2496;52.468;13.342;2023-05-08T07:43:30;12.90;94.10
4962;DHT22;2496;52.468;13.342;2023-05-08T07:45:57;13.00;94.30
4962;DHT22;2496;52.468;13.342;2023-05-08T07:48:24;13.20;93.70
4962;DHT22;2496;52.468;13.342;2023-05-08T07:50:51;13.30;93.40
4962;DHT22;2496;52.468;13.342;2023-05-08T07:53:19;13.30;93.60
4962;DHT22;2496;52.468;13.342;2023-05-08T07:55:46;13.50;93.50
4962;DHT22;2496;52.468;13.342;2023-05-08T07:58:13;13.80;92.90
4962;DHT22;2496;52.468;13.342;2023-05-08T08:00:40;13.80;92.60
4962;DHT22;2496;52.468;13.342;2023-05-08T08:03:09;13.90;92.60
4962;DHT22;2496;52.468;13.342;2023-05-08T08:05:36;14.00;92.20
4962;DHT22;2496;52.468;13.342;2023-05-08T08:08:04;14.10;92.40
4962;DHT22;2496;52.468;13.342;2023-05-08T08:10:32;14.20;92.10
4962;DHT22;2496;52.468;13.342;2023-05-08T08:12:59;14.40;91.40
4962;DHT22;2496;52.468;13.342;2023-05-08T08:15:27;14.30;91.20
4962;DHT22;2496;52.468;13.342;2023-05-08T08:17:54;14.40;91.20
4962;DHT22;2496;52.468;13.342;2023-05-08T08:20:21;14.60;90.90
4962;DHT22;2496;52.468;13.342;2023-05-08T08:22:48;14.60;90.30
4962;DHT22;2496;52.468;13.342;2023-05-08T08:25:16;14.60;90.40
4962;DHT22;2496;52.468;13.342;2023-05-08T08:27:44;14.80;90.10
4962;DHT22;2496;52.468;13.342;2023-05-08T08:30:12;14.80;88.50
4962;DHT22;2496;52.468;13.342;2023-05-08T08:32:39;14.90;88.50
4962;DHT22;2496;52.468;13.342;2023-05-08T08:35:09;15.20;86.60
4962;DHT22;2496;52.468;13.342;2023-05-08T08:37:36;15.10;85.00
4962;DHT22;2496;52.468;13.342;2023-05-08T08:40:04;14.70;85.10
4962;DHT22;2496;52.468;13.342;2023-05-08T08:42:31;15.00;84.40
4962;DHT22;2496;52.468;13.342;2023-05-08T08:45:01;15.00;85.70
4962;DHT22;2496;52.468;13.342;2023-05-08T08:47:34;15.30;84.20
4962;DHT22;2496;52.468;13.342;2023-05-08T08:50:03;15.60;83.00
4962;DHT22;2496;52.468;13.342;2023-05-08T08:52:38;15.80;80.60
4962;DHT22;2496;52.468;13.342;2023-05-08T08:55:07;15.90;80.70
4962;DHT22;2496;52.468;13.342;2023-05-08T08:57:40;16.00;80.00
4962;DHT22;2496;52.468;13.342;2023-05-08T09:00:13;16.20;78.90
4962;DHT22;2496;52.468;13.342;2023-05-08T09:02:41;16.00;77.80
4962;DHT22;2496;52.468;13.342;2023-05-08T09:05:09;15.70;77.70
4962;DHT22;2496;52.468;13.342;2023-05-08T09:07:37;15.70;78.20
4962;DHT22;2496;52.468;13.342;2023-05-08T09:10:07;15.90;78.60
4962;DHT22;2496;52.468;13.342;2023-05-08T09:12:39;15.80;78.00
4962;DHT22;2496;52.468;13.342;2023-05-08T09:15:07;15.60;80.20
4962;DHT22;2496;52.468;13.342;2023-05-08T09:17:37;15.80;79.80
4962;DHT22;2496;52.468;13.342;2023-05-08T09:20:05;16.00;79.50
4962;DHT22;2496;52.468;13.342;2023-05-08T09:22:35;15.90;79.40
4962;DHT22;2496;52.468;13.342;2023-05-08T09:25:02;15.80;79.80
4962;DHT22;2496;52.468;13.342;2023-05-08T09:27:30;15.70;80.30
4962;DHT22;2496;52.468;13.342;2023-05-08T09:30:02;15.90;80.70
4962;DHT22;2496;52.468;13.342;2023-05-08T09:32:29;16.30;80.70
4962;DHT22;2496;52.468;13.342;2023-05-08T09:34:58;16.40;79.30
4962;DHT22;2496;52.468;13.342;2023-05-08T09:37:26;16.40;79.10
4962;DHT22;2496;52.468;13.342;2023-05-08T09:39:53;16.40;79.10
4962;DHT22;2496;52.468;13.342;2023-05-08T09:42:20;16.30;78.70
4962;DHT22;2496;52.468;13.342;2023-05-08T09:44:50;16.20;79.30
4962;DHT22;2496;52.468;13.342;2023-05-08T09:47:19;15.80;78.20
4962;DHT22;2496;52.468;13.342;2023-05-08T09:49:58;15.50;79.30
4962;DHT22;2496;52.468;13.342;2023-05-08T09:52:25;15.30;79.20
4962;DHT22;2496;52.468;13.342;2023-05-08T09:54:59;15.20;80.30
4962;DHT22;2496;52.468;13.342;2023-05-08T09:57:29;15.20;80.50
4962;DHT22;2496;52.468;13.342;2023-05-08T10:00:00;15.10;80.10
4962;DHT22;2496;52.468;13.342;2023-05-08T10:02:29;15.10;80.50
4962;DHT22;2496;52.468;13.342;2023-05-08T10:04:58;15.20;79.20
4962;DHT22;2496;52.468;13.342;2023-05-08T10:07:29;15.30;75.00
4962;DHT22;2496;52.468;13.342;2023-05-08T10:10:01;15.30;76.10
4962;DHT22;2496;52.468;13.342;2023-05-08T10:12:29;15.40;76.20
4962;DHT22;2496;52.468;13.342;2023-05-08T10:14:56;15.50;74.10
4962;DHT22;2496;52.468;13.342;2023-05-08T10:17:26;15.50;74.60
4962;DHT22;2496;52.468;13.342;2023-05-08T10:19:59;15.40;73.60
4962;DHT22;2496;52.468;13.342;2023-05-08T10:22:31;15.40;75.20
4962;DHT22;2496;52.468;13.342;2023-05-08T10:24:59;15.50;73.40
4962;DHT22;2496;52.468;13.342;2023-05-08T10:27:34;15.40;73.90
4962;DHT22;2496;52.468;13.342;2023-05-08T10:30:06;15.40;74.20
4962;DHT22;2496;52.468;13.342;2023-05-08T10:32:37;15.40;73.00
4962;DHT22;2496;52.468;13.342;2023-05-08T10:35:10;15.60;72.90
4962;DHT22;2496;52.468;13.342;2023-05-08T10:37:38;15.70;73.00
4962;DHT22;2496;52.468;13.342;2023-05-08T10:40:07;15.70;73.50
4962;DHT22;2496;52.468;13.342;2023-05-08T10:42:35;15.70;73.90
4962;DHT22;2496;52.468;13.342;2023-05-08T10:45:04;15.70;73.60
4962;DHT22;2496;52.468;13.342;2023-05-08T10:47:40;15.70;74.10
4962;DHT22;2496;52.468;13.342;2023-05-08T10:50:27;15.80;73.20
4962;DHT22;2496;52.468;13.342;2023-05-08T10:53:03;15.60;73.70
4962;DHT22;2496;52.468;13.342;2023-05-08T10:55:34;15.80;74.60
4962;DHT22;2496;52.468;13.342;2023-05-08T10:58:08;15.80;73.20
4962;DHT22;2496;52.468;13.342;2023-05-08T11:01:12;15.70;72.30
4962;DHT22;2496;52.468;13.342;2023-05-08T11:03:42;15.70;73.40
4962;DHT22;2496;52.468;13.342;2023-05-08T11:06:10;15.70;73.20
4962;DHT22;2496;52.468;13.342;2023-05-08T11:08:58;15.90;73.60
4962;DHT22;2496;52.468;13.342;2023-05-08T11:11:36;16.00;72.80
4962;DHT22;2496;52.468;13.342;2023-05-08T11:14:12;16.00;72.80
4962;DHT22;2496;52.468;13.342;2023-05-08T11:17:05;16.00;71.70
4962;DHT22;2496;52.468;13.342;2023-05-08T11:19:33;16.00;71.50
4962;DHT22;2496;52.468;13.342;2023-05-08T11:22:22;16.10;72.80
4962;DHT22;2496;52.468;13.342;2023-05-08T11:25:11;16.10;72.70
4962;DHT22;2496;52.468;13.342;2023-05-08T11:28:11;16.20;72.60
4962;DHT22;2496;52.468;13.342;2023-05-08T11:30:38;16.20;72.80
4962;DHT22;2496;52.468;13.342;2023-05-08T11:33:30;16.30;73.00
4962;DHT22;2496;52.468;13.342;2023-05-08T11:35:59;16.30;72.20
4962;DHT22;2496;52.468;13.342;2023-05-08T11:38:32;16.30;72.60
4962;DHT22;2496;52.468;13.342;2023-05-08T11:41:05;16.30;71.20
4962;DHT22;2496;52.468;13.342;2023-05-08T11:44:00;16.30;70.40
4962;DHT22;2496;52.468;13.342;2023-05-08T11:46:48;16.20;71.00
4962;DHT22;2496;52.468;13.342;2023-05-08T11:49:17;16.20;70.50
4962;DHT22;2496;52.468;13.342;2023-05-08T11:51:49;16.30;71.10
4962;DHT22;2496;52.468;13.342;2023-05-08T11:54:22;16.30;70.70
4962;DHT22;2496;52.468;13.342;2023-05-08T11:56:50;16.50;69.80
4962;DHT22;2496;52.468;13.342;2023-05-08T11:59:19;16.50;71.00
4962;DHT22;2496;52.468;13.342;2023-05-08T12:01:47;16.60;70.30
4962;DHT22;2496;52.468;13.342;2023-05-08T12:04:14;16.70;71.10
4962;DHT22;2496;52.468;13.342;2023-05-08T12:06:42;16.80;70.80
4962;DHT22;2496;52.468;13.342;2023-05-08T12:09:11;16.80;70.20
4962;DHT22;2496;52.468;13.342;2023-05-08T12:11:41;16.80;71.40
4962;DHT22;2496;52.468;13.342;2023-05-08T12:14:10;16.90;70.90
4962;DHT22;2496;52.468;13.342;2023-05-08T12:16:42;16.90;71.60
4962;DHT22;2496;52.468;13.342;2023-05-08T12:19:10;16.90;71.50
4962;DHT22;2496;52.468;13.342;2023-05-08T12:21:37;16.90;70.50
4962;DHT22;2496;52.468;13.342;2023-05-08T12:24:10;16.90;71.30
4962;DHT22;2496;52.468;13.342;2023-05-08T12:26:37;16.90;69.40
4962;DHT22;2496;52.468;13.342;2023-05-08T12:29:06;16.90;69.50
4962;DHT22;2496;52.468;13.342;2023-05-08T12:31:34;16.90;69.60
4962;DHT22;2496;52.468;13.342;2023-05-08T12:34:02;16.80;69.80
4962;DHT22;2496;52.468;13.342;2023-05-08T12:36:33;16.90;70.10
4962;DHT22;2496;52.468;13.342;2023-05-08T12:39:11;17.00;69.80
4962;DHT22;2496;52.468;13.342;2023-05-08T12:41:45;17.10;70.00
4962;DHT22;2496;52.468;13.342;2023-05-08T12:44:18;17.10;69.70
4962;DHT22;2496;52.468;13.342;2023-05-08T12:46:46;17.20;70.40
4962;DHT22;2496;52.468;13.342;2023-05-08T12:49:22;17.20;69.70
4962;DHT22;2496;52.468;13.342;2023-05-08T12:51:49;17.20;70.30
4962;DHT22;2496;52.468;13.342;2023-05-08T12:54:17;17.30;68.90
4962;DHT22;2496;52.468;13.342;2023-05-08T12:56:44;17.40;67.60
4962;DHT22;2496;52.468;13.342;2023-05-08T12:59:11;17.40;67.90
4962;DHT22;2496;52.468;13.342;2023-05-08T13:01:40;17.40;66.30
4962;DHT22;2496;52.468;13.342;2023-05-08T13:04:07;17.40;66.90
4962;DHT22;2496;52.468;13.342;2023-05-08T13:06:34;17.50;66.10
4962;DHT22;2496;52.468;13.342;2023-05-08T13:09:03;17.50;66.80
4962;DHT22;2496;52.468;13.342;2023-05-08T13:11:31;17.50;66.40
4962;DHT22;2496;52.468;13.342;2023-05-08T13:13:59;17.50;66.80
4962;DHT22;2496;52.468;13.342;2023-05-08T13:16:26;17.40;66.00
4962;DHT22;2496;52.468;13.342;2023-05-08T13:18:54;17.30;67.00
4962;DHT22;2496;52.468;13.342;2023-05-08T13:21:21;17.40;66.70
4962;DHT22;2496;52.468;13.342;2023-05-08T13:23:48;17.60;66.70
4962;DHT22;2496;52.468;13.342;2023-05-08T13:26:15;17.50;66.30
4962;DHT22;2496;52.468;13.342;2023-05-08T13:28:42;17.60;66.60
4962;DHT22;2496;52.468;13.342;2023-05-08T13:31:09;17.50;67.10
4962;DHT22;2496;52.468;13.342;2023-05-08T13:33:36;17.60;68.50
4962;DHT22;2496;52.468;13.342;2023-05-08T13:36:05;17.70;68.30
4962;DHT22;2496;52.468;13.342;2023-05-08T13:38:32;17.60;67.90
4962;DHT22;2496;52.468;13.342;2023-05-08T13:40:59;17.60;68.10
4962;DHT22;2496;52.468;13.342;2023-05-08T13:43:26;17.70;68.20
4962;DHT22;2496;52.468;13.342;2023-05-08T13:45:53;17.80;66.90
4962;DHT22;2496;52.468;13.342;2023-05-08T13:48:20;17.90;66.20
4962;DHT22;2496;52.468;13.342;2023-05-08T13:50:47;17.90;65.60
4962;DHT22;2496;52.468;13.342;2023-05-08T13:53:15;17.80;65.40
4962;DHT22;2496;52.468;13.342;2023-05-08T13:55:42;17.70;64.30
4962;DHT22;2496;52.468;13.342;2023-05-08T13:58:09;17.70;64.40
4962;DHT22;2496;52.468;13.342;2023-05-08T14:00:36;17.70;65.10
4962;DHT22;2496;52.468;13.342;2023-05-08T14:03:03;17.80;64.40
4962;DHT22;2496;52.468;13.342;2023-05-08T14:05:30;17.80;63.90
4962;DHT22;2496;52.468;13.342;2023-05-08T14:07:57;17.90;63.40
4962;DHT22;2496;52.468;13.342;2023-05-08T14:10:26;17.80;63.20
4962;DHT22;2496;52.468;13.342;2023-05-08T14:23:14;17.90;65.70
4962;DHT22;2496;52.468;13.342;2023-05-08T14:25:42;17.90;64.50
4962;DHT22;2496;52.468;13.342;2023-05-08T14:28:09;17.90;63.20
4962;DHT22;2496;52.468;13.342;2023-05-08T14:30:36;18.00;63.00
4962;DHT22;2496;52.468;13.342;2023-05-08T14:33:03;17.90;62.50
4962;DHT22;2496;52.468;13.342;2023-05-08T14:35:30;17.80;63.40
4962;DHT22;2496;52.468;13.342;2023-05-08T14:37:57;17.80;63.80
4962;DHT22;2496;52.468;13.342;2023-05-08T14:40:24;17.80;64.60
4962;DHT22;2496;52.468;13.342;2023-05-08T14:42:53;17.80;64.70
4962;DHT22;2496;52.468;13.342;2023-05-08T14:45:20;17.80;64.70
4962;DHT22;2496;52.468;13.342;2023-05-08T14:47:47;17.80;64.10
4962;DHT22;2496;52.468;13.342;2023-05-08T14:50:14;17.90;62.90
4962;DHT22;2496;52.468;13.342;2023-05-08T14:52:41;17.90;63.90
4962;DHT22;2496;52.468;13.342;2023-05-08T14:55:09;17.90;64.10
4962;DHT22;2496;52.468;13.342;2023-05-08T14:57:36;17.90;64.30
4962;DHT22;2496;52.468;13.342;2023-05-08T15:00:06;17.90;65.30
4962;DHT22;2496;52.468;13.342;2023-05-08T15:02:33;17.90;65.40
4962;DHT22;2496;52.468;13.342;2023-05-08T15:05:00;17.80;64.90
4962;DHT22;2496;52.468;13.342;2023-05-08T15:07:28;17.70;64.10
4962;DHT22;2496;52.468;13.342;2023-05-08T15:09:55;17.70;62.60
4962;DHT22;2496;52.468;13.342;2023-05-08T15:12:22;17.70;62.70
4962;DHT22;2496;52.468;13.342;2023-05-08T15:14:49;17.70;63.10
4962;DHT22;2496;52.468;13.342;2023-05-08T15:17:17;17.80;62.80
4962;DHT22;2496;52.468;13.342;2023-05-08T15:19:44;17.70;61.00
4962;DHT22;2496;52.468;13.342;2023-05-08T15:22:12;17.50;62.10
4962;DHT22;2496;52.468;13.342;2023-05-08T15:24:39;17.50;63.00
4962;DHT22;2496;52.468;13.342;2023-05-08T15:27:06;17.60;63.60
4962;DHT22;2496;52.468;13.342;2023-05-08T15:29:34;17.60;63.80
4962;DHT22;2496;52.468;13.342;2023-05-08T15:32:01;17.70;64.40
4962;DHT22;2496;52.468;13.342;2023-05-08T15:34:29;17.80;64.10
4962;DHT22;2496;52.468;13.342;2023-05-08T15:36:56;17.80;62.10
4962;DHT22;2496;52.468;13.342;2023-05-08T15:39:23;17.70;61.20
4962;DHT22;2496;52.468;13.342;2023-05-08T15:41:50;17.60;62.70
4962;DHT22;2496;52.468;13.342;2023-05-08T15:44:17;17.60;63.70
4962;DHT22;2496;52.468;13.342;2023-05-08T15:46:44;17.70;64.60
4962;DHT22;2496;52.468;13.342;2023-05-08T15:49:15;17.60;64.90
4962;DHT22;2496;52.468;13.342;2023-05-08T15:51:43;17.50;65.30
4962;DHT22;2496;52.468;13.342;2023-05-08T15:54:10;17.50;65.50
4962;DHT22;2496;52.468;13.342;2023-05-08T15:56:37;17.50;65.30
4962;DHT22;2496;52.468;13.342;2023-05-08T15:59:04;17.40;65.40
4962;DHT22;2496;52.468;13.342;2023-05-08T16:01:31;17.40;66.30
4962;DHT22;2496;52.468;13.342;2023-05-08T16:03:58;17.40;64.80
4962;DHT22;2496;52.468;13.342;2023-05-08T16:06:25;17.40;64.80
4962;DHT22;2496;52.468;13.342;2023-05-08T16:08:54;17.30;64.00
4962;DHT22;2496;52.468;13.342;2023-05-08T16:11:21;17.30;63.90
4962;DHT22;2496;52.468;13.342;2023-05-08T16:13:48;17.20;64.40
4962;DHT22;2496;52.468;13.342;2023-05-08T16:16:15;17.20;65.00
4962;DHT22;2496;52.468;13.342;2023-05-08T16:18:42;17.20;65.60
4962;DHT22;2496;52.468;13.342;2023-05-08T16:21:09;17.20;65.70